sensor_id;sensor_type;location;lat;lon;timestamp;pressure;altitude;pressure_sealevel;temperature;humidity
52975;BME280;38839;45.186;5.720;2023-05-21T08:30:39;98745.84;;;16.21;77.85
52975;BME280;38839;45.186;5.720;2023-05-21T08:33:05;98761.31;;;16.30;77.56
52975;BME280;38839;45.186;5.720;2023-05-21T08:35:30;98757.19;;;16.49;77.00
52975;BME280;38839;45.186;5.720;2023-05-21T08:37:56;98763.66;;;16.66;76.38
52975;BME280;38839;45.186;5.720;2023-05-21T08:40:21;98760.31;;;16.61;76.12
52975;BME280;38839;45.186;5.720;2023-05-21T08:42:48;98755.59;;;16.70;75.75
52975;BME280;38839;45.186;5.720;2023-05-21T08:45:18;98754.81;;;16.67;75.78
52975;BME280;38839;45.186;5.720;2023-05-21T08:47:44;98746.31;;;16.59;75.74
52975;BME280;38839;45.186;5.720;2023-05-21T08:50:15;98759.97;;;16.72;75.32
52975;BME280;38839;45.186;5.720;2023-05-21T08:52:43;98751.97;;;16.73;75.42
52975;BME280;38839;45.186;5.720;2023-05-21T08:55:09;98750.97;;;16.77;75.14
52975;BME280;38839;45.186;5.720;2023-05-21T08:57:35;98751.03;;;16.76;75.26
52975;BME280;38839;45.186;5.720;2023-05-21T09:00:02;98754.41;;;16.79;75.16
52975;BME280;38839;45.186;5.720;2023-05-21T09:02:32;98753.28;;;16.88;74.70
52975;BME280;38839;45.186;5.720;2023-05-21T09:04:58;98758.13;;;17.00;74.25
52975;BME280;38839;45.186;5.720;2023-05-21T09:07:27;98760.59;;;17.05;74.36
52975;BME280;38839;45.186;5.720;2023-05-21T09:09:54;98760.44;;;17.08;74.07
52975;BME280;38839;45.186;5.720;2023-05-21T09:12:22;98768.34;;;17.08;73.54
52975;BME280;38839;45.186;5.720;2023-05-21T09:14:48;98760.41;;;17.09;74.12
52975;BME280;38839;45.186;5.720;2023-05-21T09:17:14;98752.50;;;17.09;73.78
52975;BME280;38839;45.186;5.720;2023-05-21T09:22:40;98760.78;;;17.47;72.33
52975;BME280;38839;45.186;5.720;2023-05-21T09:25:06;98762.25;;;17.55;71.84
52975;BME280;38839;45.186;5.720;2023-05-21T09:27:33;98758.16;;;17.47;71.82
52975;BME280;38839;45.186;5.720;2023-05-21T09:29:58;98759.09;;;17.45;71.83
52975;BME280;38839;45.186;5.720;2023-05-21T09:32:24;98763.59;;;17.66;71.00
52975;BME280;38839;45.186;5.720;2023-05-21T09:34:49;98763.75;;;17.85;70.49
52975;BME280;38839;45.186;5.720;2023-05-21T09:37:15;98760.69;;;17.96;69.93
52975;BME280;38839;45.186;5.720;2023-05-21T09:39:40;98760.19;;;18.08;69.15
52975;BME280;38839;45.186;5.720;2023-05-21T09:42:07;98762.53;;;17.94;69.97
52975;BME280;38839;45.186;5.720;2023-05-21T09:44:33;98765.88;;;17.99;69.30
52975;BME280;38839;45.186;5.720;2023-05-21T09:47:00;98759.97;;;17.93;69.42
52975;BME280;38839;45.186;5.720;2023-05-21T09:49:26;98760.19;;;18.08;69.01
52975;BME280;38839;45.186;5.720;2023-05-21T09:51:58;98763.22;;;18.21;68.81
52975;BME280;38839;45.186;5.720;2023-05-21T09:54:25;98748.28;;;18.20;67.84
52975;BME280;38839;45.186;5.720;2023-05-21T09:56:54;98756.16;;;18.22;67.93
52975;BME280;38839;45.186;5.720;2023-05-21T09:59:20;98751.38;;;18.09;68.53
52975;BME280;38839;45.186;5.720;2023-05-21T10:01:49;98757.56;;;18.08;68.59
52975;BME280;38839;45.186;5.720;2023-05-21T10:04:16;98752.34;;;18.29;67.68
52975;BME280;38839;45.186;5.720;2023-05-21T10:06:43;98755.88;;;18.50;66.80
52975;BME280;38839;45.186;5.720;2023-05-21T10:09:14;98760.84;;;18.58;66.43
52975;BME280;38839;45.186;5.720;2023-05-21T10:11:43;98758.44;;;18.52;66.49
52975;BME280;38839;45.186;5.720;2023-05-21T10:14:18;98756.22;;;18.63;66.12
52975;BME280;38839;45.186;5.720;2023-05-21T10:16:46;98766.38;;;18.52;66.63
52975;BME280;38839;45.186;5.720;2023-05-21T10:19:12;98767.94;;;18.35;67.05
52975;BME280;38839;45.186;5.720;2023-05-21T10:21:38;98772.13;;;18.19;67.83
52975;BME280;38839;45.186;5.720;2023-05-21T10:24:05;98772.00;;;18.22;67.78
52975;BME280;38839;45.186;5.720;2023-05-21T10:26:33;98766.78;;;18.42;66.97
52975;BME280;38839;45.186;5.720;2023-05-21T10:28:59;98771.91;;;18.45;66.99
52975;BME280;38839;45.186;5.720;2023-05-21T10:31:26;98766.78;;;18.42;66.52
52975;BME280;38839;45.186;5.720;2023-05-21T10:33:52;98763.44;;;18.37;67.17
52975;BME280;38839;45.186;5.720;2023-05-21T10:36:19;98766.59;;;18.25;67.79
52975;BME280;38839;45.186;5.720;2023-05-21T10:38:46;98766.72;;;18.22;68.17
52975;BME280;38839;45.186;5.720;2023-05-21T10:41:14;98766.88;;;18.39;67.24
52975;BME280;38839;45.186;5.720;2023-05-21T10:43:48;98765.47;;;18.30;67.71
52975;BME280;38839;45.186;5.720;2023-05-21T10:49:37;98767.16;;;18.54;66.96
52975;BME280;38839;45.186;5.720;2023-05-21T10:54:42;98758.06;;;18.61;66.48
52975;BME280;38839;45.186;5.720;2023-05-21T10:59:43;98768.09;;;18.53;66.90
52975;BME280;38839;45.186;5.720;2023-05-21T11:02:13;98768.38;;;18.67;66.43
52975;BME280;38839;45.186;5.720;2023-05-21T11:04:40;98769.81;;;18.74;66.13
52975;BME280;38839;45.186;5.720;2023-05-21T11:07:07;98760.13;;;18.75;66.49
52975;BME280;38839;45.186;5.720;2023-05-21T11:09:33;98763.78;;;18.93;66.14
52975;BME280;38839;45.186;5.720;2023-05-21T11:11:59;98764.41;;;18.99;65.73
52975;BME280;38839;45.186;5.720;2023-05-21T11:16:51;98767.44;;;19.29;64.60
52975;BME280;38839;45.186;5.720;2023-05-21T11:19:16;98767.03;;;19.39;64.54
52975;BME280;38839;45.186;5.720;2023-05-21T11:21:42;98757.38;;;19.38;64.46
52975;BME280;38839;45.186;5.720;2023-05-21T11:24:07;98761.75;;;19.39;64.82
52975;BME280;38839;45.186;5.720;2023-05-21T11:29:12;98760.75;;;19.60;64.29
52975;BME280;38839;45.186;5.720;2023-05-21T11:31:44;98755.34;;;19.63;63.75
52975;BME280;38839;45.186;5.720;2023-05-21T11:39:39;98742.31;;;19.59;63.73
52975;BME280;38839;45.186;5.720;2023-05-21T11:42:05;98752.16;;;19.76;63.37
52975;BME280;38839;45.186;5.720;2023-05-21T11:44:45;98742.47;;;19.75;62.20
52975;BME280;38839;45.186;5.720;2023-05-21T11:47:15;98746.13;;;19.72;62.59
52975;BME280;38839;45.186;5.720;2023-05-21T11:49:42;98747.09;;;20.07;61.66
52975;BME280;38839;45.186;5.720;2023-05-21T11:52:10;98742.16;;;20.19;60.97
52975;BME280;38839;45.186;5.720;2023-05-21T11:54:41;98737.09;;;20.32;60.17
52975;BME280;38839;45.186;5.720;2023-05-21T11:57:07;98738.53;;;20.39;60.20
52975;BME280;38839;45.186;5.720;2023-05-21T11:59:34;98737.63;;;20.38;60.42
52975;BME280;38839;45.186;5.720;2023-05-21T12:02:03;98737.28;;;20.09;61.19
52975;BME280;38839;45.186;5.720;2023-05-21T12:04:33;98739.84;;;19.75;62.06
52975;BME280;38839;45.186;5.720;2023-05-21T12:07:05;98736.75;;;19.84;61.70
52975;BME280;38839;45.186;5.720;2023-05-21T12:09:41;98736.91;;;19.81;62.28
52975;BME280;38839;45.186;5.720;2023-05-21T12:12:07;98735.22;;;19.97;61.65
52975;BME280;38839;45.186;5.720;2023-05-21T12:14:34;98727.50;;;20.29;60.83
52975;BME280;38839;45.186;5.720;2023-05-21T12:16:59;98729.47;;;20.43;60.24
52975;BME280;38839;45.186;5.720;2023-05-21T12:19:25;98719.13;;;20.56;60.08
52975;BME280;38839;45.186;5.720;2023-05-21T12:21:50;98721.31;;;20.82;59.37
52975;BME280;38839;45.186;5.720;2023-05-21T12:24:16;98720.16;;;21.04;58.45
52975;BME280;38839;45.186;5.720;2023-05-21T12:26:42;98714.28;;;20.99;58.63
52975;BME280;38839;45.186;5.720;2023-05-21T12:29:10;98717.88;;;21.31;58.07
52975;BME280;38839;45.186;5.720;2023-05-21T12:31:46;98714.34;;;21.30;57.38
52975;BME280;38839;45.186;5.720;2023-05-21T12:34:13;98714.09;;;21.02;58.47
52975;BME280;38839;45.186;5.720;2023-05-21T12:36:42;98713.03;;;20.88;58.63
52975;BME280;38839;45.186;5.720;2023-05-21T12:39:10;98712.25;;;20.69;58.58
52975;BME280;38839;45.186;5.720;2023-05-21T12:41:36;98707.34;;;20.96;58.09
52975;BME280;38839;45.186;5.720;2023-05-21T12:44:01;98711.75;;;20.96;58.19
52975;BME280;38839;45.186;5.720;2023-05-21T12:46:29;98713.88;;;21.22;57.33
52975;BME280;38839;45.186;5.720;2023-05-21T12:48:54;98721.56;;;21.11;57.56
52975;BME280;38839;45.186;5.720;2023-05-21T12:51:20;98718.84;;;21.13;57.61
52975;BME280;38839;45.186;5.720;2023-05-21T12:53:46;98718.00;;;21.28;56.68
52975;BME280;38839;45.186;5.720;2023-05-21T12:56:13;98718.00;;;21.28;56.97
52975;BME280;38839;45.186;5.720;2023-05-21T12:58:39;98716.50;;;21.40;56.39
52975;BME280;38839;45.186;5.720;2023-05-21T13:01:09;98713.06;;;21.38;56.32
52975;BME280;38839;45.186;5.720;2023-05-21T13:03:40;98706.56;;;21.27;56.80
52975;BME280;38839;45.186;5.720;2023-05-21T13:06:06;98716.97;;;21.15;56.81
52975;BME280;38839;45.186;5.720;2023-05-21T13:08:32;98712.22;;;21.04;57.03
52975;BME280;38839;45.186;5.720;2023-05-21T13:11:02;98715.69;;;20.88;57.68
52975;BME280;38839;45.186;5.720;2023-05-21T13:13:27;98711.75;;;21.13;57.33
52975;BME280;38839;45.186;5.720;2023-05-21T13:15:53;98708.69;;;21.37;56.77
52975;BME280;38839;45.186;5.720;2023-05-21T13:18:22;98708.47;;;21.41;56.65
52975;BME280;38839;45.186;5.720;2023-05-21T13:20:48;98703.19;;;21.57;55.97
52975;BME280;38839;45.186;5.720;2023-05-21T13:23:14;98704.91;;;21.74;55.51
52975;BME280;38839;45.186;5.720;2023-05-21T13:25:42;98706.94;;;21.53;55.54
52975;BME280;38839;45.186;5.720;2023-05-21T13:28:07;98713.41;;;21.32;56.04
52975;BME280;38839;45.186;5.720;2023-05-21T13:30:36;98709.72;;;21.34;56.44
52975;BME280;38839;45.186;5.720;2023-05-21T13:33:02;98705.03;;;21.39;56.20
52975;BME280;38839;45.186;5.720;2023-05-21T13:35:27;98706.19;;;20.84;57.14
52975;BME280;38839;45.186;5.720;2023-05-21T13:37:54;98713.31;;;21.00;57.04
52975;BME280;38839;45.186;5.720;2023-05-21T13:40:21;98704.06;;;20.91;57.12
52975;BME280;38839;45.186;5.720;2023-05-21T13:42:47;98709.22;;;20.94;56.90
52975;BME280;38839;45.186;5.720;2023-05-21T13:45:15;98706.44;;;21.13;56.77
52975;BME280;38839;45.186;5.720;2023-05-21T13:47:42;98702.75;;;21.16;56.51
52975;BME280;38839;45.186;5.720;2023-05-21T13:50:08;98698.00;;;21.38;56.11
52975;BME280;38839;45.186;5.720;2023-05-21T13:52:33;98700.44;;;21.75;55.12
52975;BME280;38839;45.186;5.720;2023-05-21T13:54:59;98698.72;;;21.74;55.10
52975;BME280;38839;45.186;5.720;2023-05-21T13:57:24;98708.31;;;21.92;54.77
52975;BME280;38839;45.186;5.720;2023-05-21T13:59:51;98706.25;;;21.97;54.72
52975;BME280;38839;45.186;5.720;2023-05-21T14:02:17;98707.81;;;21.85;54.98
52975;BME280;38839;45.186;5.720;2023-05-21T14:04:43;98701.66;;;21.85;54.75
52975;BME280;38839;45.186;5.720;2023-05-21T14:07:09;98713.81;;;21.89;54.62
52975;BME280;38839;45.186;5.720;2023-05-21T14:09:39;98695.50;;;21.68;55.05
52975;BME280;38839;45.186;5.720;2023-05-21T14:12:04;98701.31;;;21.91;54.88
52975;BME280;38839;45.186;5.720;2023-05-21T14:14:30;98700.94;;;21.97;54.58
52975;BME280;38839;45.186;5.720;2023-05-21T14:16:56;98700.25;;;22.09;54.27
52975;BME280;38839;45.186;5.720;2023-05-21T14:19:22;98700.41;;;22.06;54.28
52975;BME280;38839;45.186;5.720;2023-05-21T14:21:50;98690.25;;;21.99;53.86
52975;BME280;38839;45.186;5.720;2023-05-21T14:24:15;98682.84;;;22.20;53.55
52975;BME280;38839;45.186;5.720;2023-05-21T14:26:41;98685.50;;;22.20;53.68
52975;BME280;38839;45.186;5.720;2023-05-21T14:29:06;98692.78;;;22.00;54.49
52975;BME280;38839;45.186;5.720;2023-05-21T14:31:32;98680.41;;;22.01;54.24
52975;BME280;38839;45.186;5.720;2023-05-21T14:33:57;98677.53;;;22.04;53.66
52975;BME280;38839;45.186;5.720;2023-05-21T14:36:22;98677.28;;;22.24;52.83
52975;BME280;38839;45.186;5.720;2023-05-21T14:38:48;98685.50;;;22.36;52.24
52975;BME280;38839;45.186;5.720;2023-05-21T14:41:13;98688.03;;;22.37;52.07
52975;BME280;38839;45.186;5.720;2023-05-21T14:43:39;98697.88;;;22.05;53.49
52975;BME280;38839;45.186;5.720;2023-05-21T14:46:04;98701.94;;;22.10;53.84
52975;BME280;38839;45.186;5.720;2023-05-21T14:48:30;98691.53;;;21.92;54.60
52975;BME280;38839;45.186;5.720;2023-05-21T14:50:55;98693.69;;;21.85;54.87
52975;BME280;38839;45.186;5.720;2023-05-21T14:53:20;98697.53;;;21.95;54.94
52975;BME280;38839;45.186;5.720;2023-05-21T14:55:46;98693.25;;;21.93;54.80
52975;BME280;38839;45.186;5.720;2023-05-21T14:58:12;98695.31;;;21.72;55.61
52975;BME280;38839;45.186;5.720;2023-05-21T15:00:38;98688.72;;;21.79;55.41
52975;BME280;38839;45.186;5.720;2023-05-21T15:03:04;98686.56;;;21.69;55.37
52975;BME280;38839;45.186;5.720;2023-05-21T15:05:30;98692.22;;;21.63;55.54
52975;BME280;38839;45.186;5.720;2023-05-21T15:07:56;98685.59;;;21.23;56.74
52975;BME280;38839;45.186;5.720;2023-05-21T15:10:23;98686.06;;;21.47;56.55
52975;BME280;38839;45.186;5.720;2023-05-21T15:12:49;98693.84;;;21.50;56.10
52975;BME280;38839;45.186;5.720;2023-05-21T15:15:14;98696.88;;;21.26;57.04
52975;BME280;38839;45.186;5.720;2023-05-21T15:17:42;98697.50;;;21.32;56.82
52975;BME280;38839;45.186;5.720;2023-05-21T15:20:08;98696.38;;;21.36;56.88
52975;BME280;38839;45.186;5.720;2023-05-21T15:22:34;98691.34;;;21.47;56.69
52975;BME280;38839;45.186;5.720;2023-05-21T15:25:00;98691.38;;;21.63;55.97
52975;BME280;38839;45.186;5.720;2023-05-21T15:27:25;98690.00;;;21.56;55.88
52975;BME280;38839;45.186;5.720;2023-05-21T15:29:51;98697.63;;;21.28;56.68
52975;BME280;38839;45.186;5.720;2023-05-21T15:32:17;98703.66;;;21.32;56.53
52975;BME280;38839;45.186;5.720;2023-05-21T15:34:42;98688.88;;;21.44;56.27
52975;BME280;38839;45.186;5.720;2023-05-21T15:37:08;98693.34;;;21.59;56.28
52975;BME280;38839;45.186;5.720;2023-05-21T15:39:34;98701.84;;;21.66;55.86
52975;BME280;38839;45.186;5.720;2023-05-21T15:41:59;98693.75;;;21.67;55.84
52975;BME280;38839;45.186;5.720;2023-05-21T15:44:25;98688.28;;;21.86;55.36
52975;BME280;38839;45.186;5.720;2023-05-21T15:46:50;98690.34;;;21.81;55.16
52975;BME280;38839;45.186;5.720;2023-05-21T15:49:18;98698.09;;;22.00;54.87
52975;BME280;38839;45.186;5.720;2023-05-21T15:51:44;98698.44;;;21.94;54.70
52975;BME280;38839;45.186;5.720;2023-05-21T15:54:10;98699.41;;;21.77;55.08
52975;BME280;38839;45.186;5.720;2023-05-21T15:56:38;98696.00;;;21.91;54.66
52975;BME280;38839;45.186;5.720;2023-05-21T16:01:29;98692.84;;;21.84;54.88
52975;BME280;38839;45.186;5.720;2023-05-21T16:03:54;98695.72;;;21.80;54.82
52975;BME280;38839;45.186;5.720;2023-05-21T16:06:20;98693.25;;;21.61;54.98
52975;BME280;38839;45.186;5.720;2023-05-21T16:08:46;98693.94;;;21.64;54.93
52975;BME280;38839;45.186;5.720;2023-05-21T16:11:11;98689.22;;;21.69;54.64
52975;BME280;38839;45.186;5.720;2023-05-21T16:13:37;98687.53;;;21.68;55.00
52975;BME280;38839;45.186;5.720;2023-05-21T16:16:02;98682.28;;;21.67;55.32
52975;BME280;38839;45.186;5.720;2023-05-21T16:18:28;98670.13;;;21.63;55.18
52975;BME280;38839;45.186;5.720;2023-05-21T16:20:54;98676.91;;;21.68;55.11
52975;BME280;38839;45.186;5.720;2023-05-21T16:23:20;98672.53;;;21.67;55.27
52975;BME280;38839;45.186;5.720;2023-05-21T16:25:45;98677.13;;;21.80;54.83
52975;BME280;38839;45.186;5.720;2023-05-21T16:28:11;98673.38;;;21.84;54.64
52975;BME280;38839;45.186;5.720;2023-05-21T16:30:36;98677.56;;;21.88;54.58
52975;BME280;38839;45.186;5.720;2023-05-21T16:33:02;98675.44;;;21.95;54.91
52975;BME280;38839;45.186;5.720;2023-05-21T16:35:27;98679.72;;;21.97;54.76
52975;BME280;38839;45.186;5.720;2023-05-21T16:37:55;98670.41;;;22.04;54.58
52975;BME280;38839;45.186;5.720;2023-05-21T16:40:20;98670.63;;;22.01;54.78
52975;BME280;38839;45.186;5.720;2023-05-21T16:42:46;98669.59;;;21.88;55.55
52975;BME280;38839;45.186;5.720;2023-05-21T16:45:11;98663.63;;;21.84;55.21
52975;BME280;38839;45.186;5.720;2023-05-21T16:47:43;98661.31;;;21.78;55.12
52975;BME280;38839;45.186;5.720;2023-05-21T16:50:09;98656.25;;;21.74;55.63
52975;BME280;38839;45.186;5.720;2023-05-21T16:52:34;98661.13;;;21.65;55.70
52975;BME280;38839;45.186;5.720;2023-05-21T16:55:00;98670.31;;;21.60;55.82
52975;BME280;38839;45.186;5.720;2023-05-21T16:57:26;98667.06;;;21.55;56.11
52975;BME280;38839;45.186;5.720;2023-05-21T16:59:51;98672.88;;;21.61;55.88
52975;BME280;38839;45.186;5.720;2023-05-21T17:02:17;98668.09;;;21.68;55.95
52975;BME280;38839;45.186;5.720;2023-05-21T17:04:42;98663.97;;;21.78;55.54
52975;BME280;38839;45.186;5.720;2023-05-21T17:07:08;98669.09;;;21.65;56.10
52975;BME280;38839;45.186;5.720;2023-05-21T17:09:33;98666.97;;;21.56;56.11
52975;BME280;38839;45.186;5.720;2023-05-21T17:11:59;98664.41;;;21.55;56.05
52975;BME280;38839;45.186;5.720;2023-05-21T17:14:24;98674.50;;;21.48;56.52
52975;BME280;38839;45.186;5.720;2023-05-21T17:16:52;98672.53;;;21.52;56.41
52975;BME280;38839;45.186;5.720;2023-05-21T17:19:17;98672.16;;;21.42;56.73
52975;BME280;38839;45.186;5.720;2023-05-21T17:21:43;98675.53;;;21.45;56.66
52975;BME280;38839;45.186;5.720;2023-05-21T17:24:08;98682.06;;;21.38;56.94
52975;BME280;38839;45.186;5.720;2023-05-21T17:26:33;98682.94;;;21.39;56.95
52975;BME280;38839;45.186;5.720;2023-05-21T17:28:59;98688.34;;;21.37;57.16
52975;BME280;38839;45.186;5.720;2023-05-21T17:31:25;98687.47;;;21.37;57.04
52975;BME280;38839;45.186;5.720;2023-05-21T17:33:50;98691.22;;;21.33;57.01
52975;BME280;38839;45.186;5.720;2023-05-21T17:36:16;98695.31;;;21.22;57.28
52975;BME280;38839;45.186;5.720;2023-05-21T17:38:41;98698.31;;;21.16;57.40
52975;BME280;38839;45.186;5.720;2023-05-21T17:41:08;98696.94;;;21.09;57.46
52975;BME280;38839;45.186;5.720;2023-05-21T17:43:33;98698.94;;;21.04;57.77
52975;BME280;38839;45.186;5.720;2023-05-21T17:45:59;98698.94;;;21.04;57.81
52975;BME280;38839;45.186;5.720;2023-05-21T17:48:24;98693.75;;;21.02;57.88
52975;BME280;38839;45.186;5.720;2023-05-21T17:50:50;98694.31;;;20.92;58.57
52975;BME280;38839;45.186;5.720;2023-05-21T17:53:15;98694.47;;;20.88;58.46
52975;BME280;38839;45.186;5.720;2023-05-21T17:55:42;98701.81;;;20.83;58.51
52975;BME280;38839;45.186;5.720;2023-05-21T17:58:07;98707.28;;;20.80;58.87
52975;BME280;38839;45.186;5.720;2023-05-21T18:00:34;98695.13;;;20.76;58.72
52975;BME280;38839;45.186;5.720;2023-05-21T18:03:00;98702.44;;;20.71;59.04
52975;BME280;38839;45.186;5.720;2023-05-21T18:05:26;98713.22;;;20.68;59.23
52975;BME280;38839;45.186;5.720;2023-05-21T18:07:51;98712.50;;;20.64;59.24
52975;BME280;38839;45.186;5.720;2023-05-21T18:10:17;98710.09;;;20.60;59.78
52975;BME280;38839;45.186;5.720;2023-05-21T18:12:42;98718.25;;;20.55;59.70
52975;BME280;38839;45.186;5.720;2023-05-21T18:15:10;98714.84;;;20.53;59.75
52975;BME280;38839;45.186;5.720;2023-05-21T18:17:36;98716.72;;;20.51;59.92
52975;BME280;38839;45.186;5.720;2023-05-21T18:20:02;98711.78;;;20.43;59.96
52975;BME280;38839;45.186;5.720;2023-05-21T18:22:28;98713.47;;;20.44;60.18
52975;BME280;38839;45.186;5.720;2023-05-21T18:24:53;98718.00;;;20.42;60.37
52975;BME280;38839;45.186;5.720;2023-05-21T18:27:19;98719.25;;;20.35;60.38
52975;BME280;38839;45.186;5.720;2023-05-21T18:29:45;98714.88;;;20.34;60.82
52975;BME280;38839;45.186;5.720;2023-05-21T18:32:13;98723.84;;;20.32;60.61
52975;BME280;38839;45.186;5.720;2023-05-21T18:34:39;98720.50;;;20.28;60.68
52975;BME280;38839;45.186;5.720;2023-05-21T18:37:07;98732.81;;;20.29;60.40
52975;BME280;38839;45.186;5.720;2023-05-21T18:39:33;98741.97;;;20.22;60.74
52975;BME280;38839;45.186;5.720;2023-05-21T18:41:58;98729.81;;;20.18;60.70
52975;BME280;38839;45.186;5.720;2023-05-21T18:44:24;98725.53;;;20.15;60.97
52975;BME280;38839;45.186;5.720;2023-05-21T18:46:49;98730.34;;;20.07;60.88
52975;BME280;38839;45.186;5.720;2023-05-21T18:49:16;98728.72;;;20.04;61.03
52975;BME280;38839;45.186;5.720;2023-05-21T18:51:41;98727.94;;;20.02;61.44
52975;BME280;38839;45.186;5.720;2023-05-21T18:54:06;98737.75;;;20.00;61.55
52975;BME280;38839;45.186;5.720;2023-05-21T18:56:32;98735.47;;;19.93;61.92
52975;BME280;38839;45.186;5.720;2023-05-21T18:58:58;98731.31;;;19.87;62.33
52975;BME280;38839;45.186;5.720;2023-05-21T19:01:23;98750.91;;;19.83;62.33
52975;BME280;38839;45.186;5.720;2023-05-21T19:03:49;98748.38;;;19.81;62.47
52975;BME280;38839;45.186;5.720;2023-05-21T19:06:14;98746.69;;;19.79;62.59
52975;BME280;38839;45.186;5.720;2023-05-21T19:08:40;98756.66;;;19.74;62.61
52975;BME280;38839;45.186;5.720;2023-05-21T19:11:06;98760.22;;;19.73;62.54
52975;BME280;38839;45.186;5.720;2023-05-21T19:13:32;98761.09;;;19.73;62.29
52975;BME280;38839;45.186;5.720;2023-05-21T19:15:58;98774.09;;;19.78;61.98
52975;BME280;38839;45.186;5.720;2023-05-21T19:18:25;98779.53;;;19.75;61.93
52975;BME280;38839;45.186;5.720;2023-05-21T19:20:54;98774.78;;;19.62;62.33
52975;BME280;38839;45.186;5.720;2023-05-21T19:23:20;98786.94;;;19.47;63.48
52975;BME280;38839;45.186;5.720;2023-05-21T19:25:45;98782.06;;;19.38;63.15
52975;BME280;38839;45.186;5.720;2023-05-21T19:28:10;98784.72;;;19.38;62.87
52975;BME280;38839;45.186;5.720;2023-05-21T19:30:36;98784.78;;;19.37;63.44
52975;BME280;38839;45.186;5.720;2023-05-21T19:33:01;98786.63;;;19.35;63.46
52975;BME280;38839;45.186;5.720;2023-05-21T19:35:27;98790.00;;;19.38;63.49
52975;BME280;38839;45.186;5.720;2023-05-21T19:37:52;98794.50;;;19.36;63.72
52975;BME280;38839;45.186;5.720;2023-05-21T19:40:22;98803.50;;;19.32;63.94
52975;BME280;38839;45.186;5.720;2023-05-21T19:42:48;98808.19;;;19.25;64.18
52975;BME280;38839;45.186;5.720;2023-05-21T19:45:13;98812.81;;;19.20;64.82
52975;BME280;38839;45.186;5.720;2023-05-21T19:47:39;98813.03;;;19.16;65.40
52975;BME280;38839;45.186;5.720;2023-05-21T19:50:06;98812.31;;;19.12;66.04
52975;BME280;38839;45.186;5.720;2023-05-21T19:52:31;98816.84;;;19.08;66.13
52975;BME280;38839;45.186;5.720;2023-05-21T19:54:57;98812.69;;;19.03;66.50
52975;BME280;38839;45.186;5.720;2023-05-21T19:57:30;98814.53;;;19.01;66.88
52975;BME280;38839;45.186;5.720;2023-05-21T19:59:56;98822.66;;;18.96;67.57
52975;BME280;38839;45.186;5.720;2023-05-21T20:02:22;98814.94;;;18.92;67.55
52975;BME280;38839;45.186;5.720;2023-05-21T20:04:48;98819.56;;;18.86;67.90
52975;BME280;38839;45.186;5.720;2023-05-21T20:07:15;98824.94;;;18.85;68.17
52975;BME280;38839;45.186;5.720;2023-05-21T20:09:41;98834.63;;;18.84;68.40
52975;BME280;38839;45.186;5.720;2023-05-21T20:12:07;98832.91;;;18.83;68.25
52975;BME280;38839;45.186;5.720;2023-05-21T20:14:33;98835.59;;;18.82;68.29
52975;BME280;38839;45.186;5.720;2023-05-21T20:17:02;98838.31;;;18.80;68.81
52975;BME280;38839;45.186;5.720;2023-05-21T20:19:29;98846.34;;;18.77;68.90
52975;BME280;38839;45.186;5.720;2023-05-21T20:21:57;98845.81;;;18.69;68.95
52975;BME280;38839;45.186;5.720;2023-05-21T20:24:22;98858.31;;;18.64;69.21
52975;BME280;38839;45.186;5.720;2023-05-21T20:26:48;98864.84;;;18.55;69.22
52975;BME280;38839;45.186;5.720;2023-05-21T20:29:14;98860.13;;;18.41;69.53
52975;BME280;38839;45.186;5.720;2023-05-21T20:31:39;98858.66;;;18.34;69.80
52975;BME280;38839;45.186;5.720;2023-05-21T20:34:05;98864.97;;;18.30;69.95
52975;BME280;38839;45.186;5.720;2023-05-21T20:36:32;98862.00;;;18.16;70.56
52975;BME280;38839;45.186;5.720;2023-05-21T20:38:58;98866.72;;;18.07;70.76
52975;BME280;38839;45.186;5.720;2023-05-21T20:41:30;98865.78;;;18.08;70.31
52975;BME280;38839;45.186;5.720;2023-05-21T20:44:03;98875.50;;;18.08;69.99
52975;BME280;38839;45.186;5.720;2023-05-21T20:46:32;98872.69;;;18.13;70.15
52975;BME280;38839;45.186;5.720;2023-05-21T20:48:58;98869.25;;;18.10;70.13
52975;BME280;38839;45.186;5.720;2023-05-21T20:51:25;98869.25;;;18.10;70.19
52975;BME280;38839;45.186;5.720;2023-05-21T20:53:51;98868.44;;;18.08;70.45
52975;BME280;38839;45.186;5.720;2023-05-21T20:56:16;98858.81;;;18.07;70.60
52975;BME280;38839;45.186;5.720;2023-05-21T20:58:47;98862.34;;;18.06;71.02
52975;BME280;38839;45.186;5.720;2023-05-21T21:01:14;98863.34;;;18.04;71.30
52975;BME280;38839;45.186;5.720;2023-05-21T21:03:41;98859.78;;;18.05;71.11
52975;BME280;38839;45.186;5.720;2023-05-21T21:06:10;98863.53;;;17.99;71.87
52975;BME280;38839;45.186;5.720;2023-05-21T21:08:35;98860.03;;;17.99;71.72
52975;BME280;38839;45.186;5.720;2023-05-21T21:11:01;98857.53;;;17.94;72.09
52975;BME280;38839;45.186;5.720;2023-05-21T21:13:26;98856.88;;;17.89;72.22
52975;BME280;38839;45.186;5.720;2023-05-21T21:15:51;98870.16;;;17.86;72.68
52975;BME280;38839;45.186;5.720;2023-05-21T21:18:17;98873.81;;;17.82;72.52
52975;BME280;38839;45.186;5.720;2023-05-21T21:20:42;98867.72;;;17.80;73.05
52975;BME280;38839;45.186;5.720;2023-05-21T21:23:11;98870.59;;;17.74;73.41
52975;BME280;38839;45.186;5.720;2023-05-21T21:25:37;98881.25;;;17.70;73.64
52975;BME280;38839;45.186;5.720;2023-05-21T21:28:02;98880.72;;;17.61;74.19
52975;BME280;38839;45.186;5.720;2023-05-21T21:30:28;98882.75;;;17.54;74.43
52975;BME280;38839;45.186;5.720;2023-05-21T21:32:53;98881.75;;;17.57;74.17
52975;BME280;38839;45.186;5.720;2023-05-21T21:35:18;98883.50;;;17.58;74.38
52975;BME280;38839;45.186;5.720;2023-05-21T21:37:44;98875.63;;;17.56;74.30
52975;BME280;38839;45.186;5.720;2023-05-21T21:40:09;98878.38;;;17.53;74.37
52975;BME280;38839;45.186;5.720;2023-05-21T21:42:35;98874.81;;;17.54;74.32
52975;BME280;38839;45.186;5.720;2023-05-21T21:45:01;98885.38;;;17.54;74.26
52975;BME280;38839;45.186;5.720;2023-05-21T21:47:27;98888.19;;;17.49;74.40
52975;BME280;38839;45.186;5.720;2023-05-21T21:49:52;98888.22;;;17.48;74.34